Time;durP1;ratioP1;P1;durP2;ratioP2;P2;SDS_P1;SDS_P2;PMS_P1;PMS_P2;Temp;Humidity;BMP_temperature;BMP_pressure;BME280_temperature;BME280_humidity;BME280_pressure;Samples;Min_cycle;Max_cycle;Signal;HPM_P1;HPM_P2
2023/03/23 00:02:24;;;;;;;2.55;1.90;;;13.20;99.90;;;12.41;100.00;96771.03;5049679;28;20397;-72
2023/03/23 00:04:50;;;;;;;4.95;2.28;;;13.20;99.90;;;12.43;100.00;96771.56;5049775;28;20775;-71
2023/03/23 00:07:21;;;;;;;2.45;1.85;;;13.30;99.90;;;12.46;100.00;96773.66;5032103;28;21050;-72
2023/03/23 00:09:53;;;;;;;3.78;2.10;;;13.30;99.90;;;12.47;100.00;96767.28;5049687;28;20591;-72
2023/03/23 00:12:21;;;;;;;6.53;2.17;;;13.30;99.90;;;12.47;100.00;96769.16;5049535;28;20892;-72
2023/03/23 00:14:47;;;;;;;3.88;2.13;;;13.30;99.90;;;12.46;100.00;96764.91;5049757;28;20923;-72
2023/03/23 00:17:14;;;;;;;3.30;2.03;;;13.30;99.90;;;12.45;100.00;96763.31;5049646;28;20498;-72
2023/03/23 00:19:46;;;;;;;2.35;1.80;;;13.30;99.90;;;12.47;100.00;96758.53;5052516;28;20432;-72
2023/03/23 00:22:14;;;;;;;2.50;1.90;;;13.30;99.90;;;12.45;100.00;96748.19;5053395;28;20401;-72
2023/03/23 00:24:41;;;;;;;2.58;1.85;;;13.20;99.90;;;12.52;100.00;96758.50;5053594;28;20911;-72
2023/03/23 00:27:12;;;;;;;4.75;2.03;;;13.30;99.90;;;12.54;100.00;96749.19;5053514;28;20815;-72
2023/03/23 00:29:38;;;;;;;3.37;1.83;;;13.30;99.90;;;12.66;100.00;96749.59;5053446;28;20416;-72
2023/03/23 00:32:04;;;;;;;3.35;2.10;;;13.40;99.90;;;12.65;100.00;96741.91;5053133;28;20409;-72
2023/03/23 00:34:32;;;;;;;2.25;1.70;;;13.40;99.90;;;12.70;100.00;96742.66;5053368;28;20887;-72
2023/03/23 00:36:58;;;;;;;4.15;1.80;;;13.40;99.90;;;12.70;100.00;96742.66;5053363;28;20435;-72
2023/03/23 00:39:27;;;;;;;5.20;1.80;;;13.50;99.90;;;12.72;100.00;96743.16;5053287;28;20446;-72
2023/03/23 00:42:00;;;;;;;3.35;2.10;;;13.50;99.90;;;12.68;100.00;96739.50;5052961;28;20416;-72
2023/03/23 00:44:28;;;;;;;2.15;1.60;;;13.50;99.90;;;12.65;100.00;96728.63;5053265;28;20413;-72
2023/03/23 00:46:56;;;;;;;2.75;1.70;;;13.40;99.90;;;12.63;100.00;96731.56;5053201;28;20887;-72
2023/03/23 00:49:25;;;;;;;2.42;1.63;;;13.40;99.90;;;12.59;100.00;96735.06;5053150;28;20397;-72
2023/03/23 00:51:51;;;;;;;3.58;1.80;;;13.40;99.90;;;12.60;100.00;96720.72;5052731;28;20397;-73
2023/03/23 00:54:17;;;;;;;3.13;1.77;;;13.40;99.90;;;12.57;100.00;96730.03;5052987;28;20398;-72
2023/03/23 00:56:43;;;;;;;3.00;1.70;;;13.40;99.90;;;12.62;100.00;96713.28;5052995;28;20397;-72
2023/03/23 00:59:09;;;;;;;2.87;1.80;;;13.40;99.90;;;12.62;100.00;96722.03;5052939;28;21017;-72
2023/03/23 01:01:37;;;;;;;1.88;1.60;;;13.40;99.90;;;12.65;100.00;96715.34;5052631;28;20891;-72
2023/03/23 01:04:06;;;;;;;1.67;1.43;;;13.40;99.90;;;12.66;100.00;96712.41;5052847;28;20453;-72
2023/03/23 01:06:38;;;;;;;4.15;1.95;;;13.50;99.90;;;12.61;100.00;96717.78;5052768;28;20408;-72
2023/03/23 01:09:06;;;;;;;3.22;1.80;;;13.40;99.90;;;12.60;100.00;96721.50;5052639;28;20416;-72
2023/03/23 01:11:32;;;;;;;2.50;1.70;;;13.40;99.90;;;12.60;100.00;96720.72;5052399;28;20420;-72
2023/03/23 01:13:58;;;;;;;3.75;1.92;;;13.40;99.90;;;12.59;100.00;96711.16;5052679;28;20393;-72
2023/03/23 01:16:25;;;;;;;3.13;1.80;;;13.40;99.90;;;12.59;100.00;96709.31;5052654;28;20479;-72
2023/03/23 01:18:52;;;;;;;2.38;1.90;;;13.40;99.90;;;12.61;100.00;96709.03;5052494;28;20415;-72
2023/03/23 01:21:20;;;;;;;3.07;1.83;;;13.40;99.90;;;12.62;100.00;96713.28;5052484;28;20394;-72
2023/03/23 01:23:46;;;;;;;3.00;1.70;;;13.40;99.90;;;12.62;100.00;96703.44;5052303;28;20948;-72
2023/03/23 01:26:15;;;;;;;3.33;1.83;;;13.40;99.90;;;12.57;100.00;96702.69;5052491;28;20407;-72
2023/03/23 01:28:42;;;;;;;2.25;1.83;;;13.40;99.90;;;12.61;100.00;96690.44;5034265;28;20835;-72
2023/03/23 01:31:14;;;;;;;3.53;1.85;;;13.40;99.90;;;12.53;100.00;96694.50;5051941;28;20830;-72
2023/03/23 01:33:41;;;;;;;2.40;1.92;;;13.30;99.90;;;12.57;100.00;96684.88;5052245;28;20405;-72
2023/03/23 01:36:12;;;;;;;2.55;1.90;;;13.40;99.90;;;12.61;100.00;96683.28;5052329;28;20401;-72
2023/03/23 01:38:38;;;;;;;2.58;1.92;;;13.40;99.90;;;12.58;100.00;96667.09;5034313;28;20758;-72
2023/03/23 01:41:05;;;;;;;2.88;1.80;;;13.40;99.90;;;12.55;100.00;96665.81;5052114;28;20463;-72
2023/03/23 01:43:31;;;;;;;2.42;1.90;;;13.40;99.90;;;12.56;100.00;96672.69;5051812;28;20405;-72
2023/03/23 01:45:58;;;;;;;2.35;1.73;;;13.40;99.90;;;12.48;100.00;96669.88;5052084;28;20401;-72
2023/03/23 01:48:27;;;;;;;2.80;1.75;;;13.30;99.90;;;12.42;100.00;96671.75;5052030;28;20855;-72
2023/03/23 01:50:58;;;;;;;3.05;1.90;;;13.20;99.90;;;12.37;100.00;96669.97;5051931;28;20405;-72
2023/03/23 01:53:34;;;;;;;5.05;2.15;;;13.20;99.90;;;12.32;100.00;96670.00;5051741;28;20489;-72
2023/03/23 01:56:01;;;;;;;2.30;1.73;;;13.10;99.90;;;12.28;100.00;96671.63;5051913;28;20408;-72
2023/03/23 01:58:32;;;;;;;2.90;2.00;;;13.10;99.90;;;12.18;100.00;96671.69;5051746;28;20397;-72
2023/03/23 02:01:03;;;;;;;3.92;1.95;;;13.00;99.90;;;12.13;100.00;96666.44;5051737;28;20492;-72
2023/03/23 02:03:31;;;;;;;3.80;2.30;;;12.90;99.90;;;12.10;100.00;96669.69;5051458;28;20424;-72
2023/03/23 02:05:58;;;;;;;4.03;2.08;;;12.90;99.90;;;12.10;100.00;96674.97;5033808;28;20770;-72
2023/03/23 02:08:27;;;;;;;3.88;1.90;;;12.90;99.90;;;12.10;100.00;96668.88;5051402;28;20417;-72
2023/03/23 02:10:53;;;;;;;3.90;2.05;;;12.90;99.90;;;12.06;100.00;96662.53;5051550;28;20459;-72
2023/03/23 02:13:20;;;;;;;4.88;2.40;;;12.90;99.90;;;11.99;100.00;96668.94;5051446;28;20401;-72
2023/03/23 02:15:57;;;;;;;3.85;2.10;;;12.80;99.90;;;11.96;100.00;96660.75;5033568;28;20413;-72
2023/03/23 02:18:37;;;;;;;3.13;1.80;;;12.80;99.90;;;12.00;100.00;96665.22;5051468;28;20429;-72
2023/03/23 02:21:42;;;;;;;4.45;2.20;;;12.80;99.90;;;12.07;100.00;96664.13;5051337;28;20398;-72
2023/03/23 02:24:40;;;;;;;3.40;1.90;;;12.90;99.90;;;12.16;100.00;96667.75;5051204;28;20508;-72
2023/03/23 02:27:11;;;;;;;3.75;2.30;;;12.90;99.90;;;12.12;100.00;96672.81;5051292;28;20883;-72
2023/03/23 02:30:15;;;;;;;4.50;2.50;;;12.90;99.90;;;12.12;100.00;96658.75;5051252;28;20400;-72
2023/03/23 02:33:34;;;;;;;2.90;1.90;;;12.90;99.90;;;12.12;100.00;96656.09;5037105;28;20416;-72
2023/03/23 02:36:12;;;;;;;4.10;2.25;;;12.90;99.90;;;12.13;100.00;96645.22;5051187;28;20401;-72
2023/03/23 02:38:50;;;;;;;2.83;2.03;;;12.90;99.90;;;12.14;100.00;96641.50;5050957;28;20401;-72
2023/03/23 02:41:22;;;;;;;2.53;2.10;;;12.90;99.90;;;12.18;100.00;96633.78;5049261;28;22217;-72
2023/03/23 02:43:50;;;;;;;4.55;2.20;;;13.00;99.90;;;12.20;100.00;96619.16;5050893;28;20413;-72
2023/03/23 02:46:17;;;;;;;4.85;2.05;;;13.00;99.90;;;12.18;100.00;96623.94;5050889;28;20406;-72
2023/03/23 02:48:46;;;;;;;5.03;2.25;;;13.00;99.90;;;12.19;100.00;96625.53;5032893;28;20877;-72
2023/03/23 02:51:14;;;;;;;2.53;1.98;;;13.00;99.90;;;12.18;100.00;96623.19;5050678;28;20397;-72
2023/03/23 02:53:43;;;;;;;3.17;2.00;;;13.00;99.90;;;12.16;100.00;96627.97;5050778;28;20394;-72
2023/03/23 02:56:10;;;;;;;3.28;2.10;;;13.00;99.90;;;12.15;100.00;96623.72;5050729;28;20798;-72
2023/03/23 02:58:37;;;;;;;2.70;2.20;;;13.00;99.90;;;12.09;100.00;96622.19;5050663;28;20875;-72
2023/03/23 03:01:35;;;;;;;3.22;2.00;;;12.90;99.90;;;12.05;100.00;96616.66;5050551;28;20404;-72
2023/03/23 03:04:06;;;;;;;3.13;2.15;;;12.90;99.90;;;12.06;100.00;96614.78;5039070;28;20449;-72
2023/03/23 03:06:42;;;;;;;3.60;2.13;;;12.90;99.90;;;12.05;100.00;96610.53;5050675;28;20488;-72
2023/03/23 03:09:14;;;;;;;3.17;2.05;;;12.90;99.90;;;12.10;100.00;96613.16;5050384;28;20405;-72
2023/03/23 03:11:46;;;;;;;3.60;1.85;;;12.90;99.90;;;12.11;100.00;96610.22;5050284;28;20401;-72
2023/03/23 03:14:23;;;;;;;3.77;2.20;;;12.90;99.90;;;12.12;100.00;96608.34;5050458;28;20530;-72
2023/03/23 03:17:00;;;;;;;3.30;2.10;;;12.90;99.90;;;12.10;100.00;96605.22;5050424;28;20405;-72
2023/03/23 03:19:31;;;;;;;2.50;2.00;;;12.90;99.90;;;12.13;100.00;96615.25;5050398;28;20451;-72
2023/03/23 03:21:59;;;;;;;2.58;2.00;;;12.90;99.90;;;12.16;100.00;96614.69;5050088;28;20471;-72
2023/03/23 03:24:28;;;;;;;2.40;1.70;;;12.90;99.90;;;12.18;100.00;96612.56;5050310;28;20420;-72
2023/03/23 03:26:59;;;;;;;4.13;2.40;;;13.00;99.90;;;12.20;100.00;96615.72;5050232;28;20420;-72
2023/03/23 03:29:31;;;;;;;3.35;2.10;;;13.00;99.90;;;12.20;100.00;96610.41;5050237;28;20397;-72
2023/03/23 03:31:59;;;;;;;2.67;2.03;;;13.00;99.90;;;12.23;100.00;96615.16;5049910;28;20417;-72
2023/03/23 03:34:25;;;;;;;3.30;2.00;;;13.00;99.90;;;12.24;100.00;96609.59;5050266;28;20437;-72
2023/03/23 03:36:55;;;;;;;2.53;2.00;;;13.00;99.90;;;12.28;100.00;96612.44;5050115;28;20397;-72
2023/03/23 03:39:22;;;;;;;3.22;1.98;;;13.10;99.90;;;12.29;100.00;96616.69;5050179;28;20429;-72
2023/03/23 03:41:48;;;;;;;2.70;1.90;;;13.10;99.90;;;12.30;100.00;96616.41;5049822;28;20470;-72
2023/03/23 03:44:15;;;;;;;5.13;2.03;;;13.10;99.90;;;12.27;100.00;96605.56;5050055;28;20419;-72
2023/03/23 03:46:41;;;;;;;3.22;2.20;;;13.10;99.90;;;12.28;100.00;96605.28;5050032;28;20407;-72
2023/03/23 03:49:11;;;;;;;2.20;1.80;;;13.10;99.90;;;12.29;100.00;96604.22;5050039;28;20402;-72
2023/03/23 03:51:38;;;;;;;2.30;1.92;;;13.10;99.90;;;12.35;100.00;96603.09;5049696;28;20401;-73
2023/03/23 03:54:05;;;;;;;2.70;1.90;;;13.10;99.90;;;12.35;100.00;96586.38;5053720;28;20402;-72
2023/03/23 03:56:35;;;;;;;3.45;2.13;;;13.10;99.90;;;12.36;100.00;96582.66;5054197;28;20406;-73
2023/03/23 03:59:02;;;;;;;2.38;1.75;;;13.20;99.90;;;12.41;100.00;96579.94;5054063;28;20424;-72
2023/03/23 04:01:28;;;;;;;3.47;2.10;;;13.20;99.90;;;12.36;100.00;96582.66;5053736;28;20397;-72
2023/03/23 04:03:56;;;;;;;2.50;2.00;;;13.20;99.90;;;12.34;100.00;96592.75;5053906;28;20421;-72
2023/03/23 04:06:23;;;;;;;3.83;2.08;;;13.10;99.90;;;12.35;100.00;96595.13;5053966;28;20401;-73
2023/03/23 04:08:49;;;;;;;4.90;2.13;;;13.10;99.90;;;12.39;100.00;96596.16;5053682;28;20409;-72
2023/03/23 04:11:15;;;;;;;3.05;1.98;;;13.20;99.90;;;12.29;100.00;96606.06;5053727;28;20406;-72
2023/03/23 04:13:42;;;;;;;2.83;2.00;;;13.10;99.90;;;12.31;100.00;96602.09;5053739;28;20401;-72
2023/03/23 04:16:09;;;;;;;2.27;1.77;;;13.10;99.90;;;12.32;100.00;96595.72;5053728;28;20507;-72
2023/03/23 04:18:35;;;;;;;2.15;1.77;;;13.10;99.90;;;12.36;100.00;96601.22;5053662;28;20397;-73
2023/03/23 04:21:03;;;;;;;2.97;2.00;;;13.10;99.90;;;12.40;100.00;96604.91;5053581;28;20759;-73
2023/03/23 04:23:33;;;;;;;2.33;1.80;;;13.20;99.90;;;12.40;100.00;96608.34;5053318;28;20437;-73
2023/03/23 04:25:59;;;;;;;2.97;1.95;;;13.20;99.90;;;12.41;100.00;96604.63;5053658;28;20783;-73
2023/03/23 04:28:26;;;;;;;4.43;1.95;;;13.20;99.90;;;12.41;100.00;96606.47;5053520;28;20425;-73
2023/03/23 04:30:53;;;;;;;3.47;2.17;;;13.20;99.90;;;12.37;100.00;96608.91;5053286;28;20402;-73
2023/03/23 04:33:22;;;;;;;3.05;1.92;;;13.20;99.90;;;12.38;100.00;96602.53;5053236;28;20763;-72
2023/03/23 04:35:48;;;;;;;4.20;1.85;;;13.20;99.90;;;12.38;100.00;96613.16;5035449;28;20414;-73
2023/03/23 04:38:16;;;;;;;2.20;1.80;;;13.20;99.90;;;12.44;100.00;96594.50;5053218;28;20398;-73
2023/03/23 04:40:43;;;;;;;3.93;2.10;;;13.20;99.90;;;12.47;100.00;96594.75;5053293;28;20961;-73
2023/03/23 04:43:12;;;;;;;3.00;1.75;;;13.20;99.90;;;12.39;100.00;96595.38;5053040;28;20397;-73
2023/03/23 04:45:41;;;;;;;2.88;2.03;;;13.20;99.90;;;12.40;100.00;96594.31;5053141;28;20453;-73
2023/03/23 04:48:09;;;;;;;3.35;1.90;;;13.20;99.90;;;12.43;100.00;96600.88;5053092;28;20914;-73
2023/03/23 04:50:35;;;;;;;3.70;2.20;;;13.20;99.90;;;12.41;100.00;96596.66;5053037;28;20455;-72
2023/03/23 04:53:03;;;;;;;2.92;1.90;;;13.20;99.90;;;12.46;100.00;96595.03;5052918;28;20406;-73
2023/03/23 04:55:30;;;;;;;4.40;2.10;;;13.20;99.90;;;12.47;100.00;96609.88;5053121;28;20396;-72
2023/03/23 04:58:01;;;;;;;2.70;1.83;;;13.20;99.90;;;12.47;100.00;96608.03;5052850;28;20409;-72
2023/03/23 05:00:27;;;;;;;2.47;1.88;;;13.20;99.90;;;12.50;100.00;96611.97;5052045;28;20412;-72
2023/03/23 05:02:55;;;;;;;2.15;1.85;;;13.30;99.90;;;12.45;100.00;96609.38;5049405;28;21034;-72
2023/03/23 05:05:24;;;;;;;2.63;2.00;;;13.20;99.90;;;12.40;100.00;96618.19;5050254;28;20484;-72
2023/03/23 05:07:51;;;;;;;4.63;2.10;;;13.20;99.90;;;12.36;100.00;96612.63;5050846;28;20448;-73
2023/03/23 05:10:17;;;;;;;5.47;1.90;;;13.10;99.90;;;12.35;100.00;96610.25;5051955;28;20417;-72
2023/03/23 05:12:44;;;;;;;2.10;1.85;;;13.10;99.90;;;12.29;100.00;96609.53;5050825;28;20776;-73
2023/03/23 05:15:12;;;;;;;2.55;2.00;;;13.10;99.90;;;12.34;100.00;96606.03;5052312;28;20401;-72
2023/03/23 05:17:40;;;;;;;3.85;2.00;;;13.10;99.90;;;12.33;100.00;96602.56;5053342;28;20500;-72
2023/03/23 05:20:11;;;;;;;2.47;1.88;;;13.10;99.90;;;12.32;100.00;96602.88;5049314;28;20790;-73
2023/03/23 05:22:38;;;;;;;2.22;1.75;;;13.10;99.90;;;12.33;100.00;96607.09;5052042;28;20893;-72
2023/03/23 05:25:08;;;;;;;3.40;1.90;;;13.10;99.90;;;12.33;100.00;96605.22;5052330;28;20413;-72
2023/03/23 05:27:34;;;;;;;2.13;1.73;;;13.10;99.90;;;12.38;100.00;96594.56;5052517;28;20409;-72
2023/03/23 05:30:01;;;;;;;2.53;1.80;;;13.20;99.90;;;12.39;100.00;96598.03;5052285;28;20405;-72
2023/03/23 05:32:30;;;;;;;2.25;1.88;;;13.20;99.90;;;12.43;100.00;96598.25;5052099;28;20439;-72
2023/03/23 05:34:57;;;;;;;2.83;2.00;;;13.20;99.90;;;12.45;100.00;96596.91;5051019;28;20762;-72
2023/03/23 05:37:23;;;;;;;2.17;1.80;;;13.20;99.90;;;12.44;100.00;96597.97;5052259;28;20920;-72
2023/03/23 05:39:53;;;;;;;2.95;2.05;;;13.20;99.90;;;12.45;100.00;96598.75;5052132;28;20398;-71
2023/03/23 05:42:19;;;;;;;2.57;1.87;;;13.20;99.90;;;12.49;100.00;96608.50;5051961;28;20443;-72
2023/03/23 05:44:45;;;;;;;4.25;2.20;;;13.20;99.90;;;12.47;100.00;96596.63;5051138;28;20500;-73
2023/03/23 05:47:12;;;;;;;5.65;2.20;;;13.20;99.90;;;12.46;100.00;96593.16;5050286;28;20500;-73
2023/03/23 05:49:38;;;;;;;2.27;1.80;;;13.20;99.90;;;12.46;100.00;96593.16;5052489;28;20397;-72
2023/03/23 05:52:04;;;;;;;2.15;1.80;;;13.20;99.90;;;12.44;100.00;96603.28;5050057;28;20432;-72
2023/03/23 05:54:30;;;;;;;3.70;1.98;;;13.20;99.90;;;12.44;100.00;96611.22;5053487;28;20393;-72
2023/03/23 05:56:57;;;;;;;4.40;1.92;;;13.20;99.90;;;12.55;100.00;96603.97;5032719;28;20447;-72
2023/03/23 05:59:24;;;;;;;3.10;2.20;;;13.30;99.90;;;12.55;100.00;96606.63;5053527;28;20406;-71
2023/03/23 06:01:51;;;;;;;2.13;1.77;;;13.30;99.90;;;12.55;100.00;96618.03;5050724;28;20806;-72
2023/03/23 06:04:17;;;;;;;2.95;1.90;;;13.30;99.90;;;12.56;100.00;96622.25;5051340;28;20895;-72
2023/03/23 06:06:43;;;;;;;2.72;2.10;;;13.30;99.90;;;12.57;100.00;96613.22;5051522;28;20404;-72
2023/03/23 06:09:09;;;;;;;2.50;2.00;;;13.40;99.90;;;12.58;100.00;96619.31;5051504;28;20405;-72
2023/03/23 06:11:35;;;;;;;3.42;2.25;;;13.30;99.90;;;12.56;100.00;96626.75;5051172;28;20405;-71
2023/03/23 06:14:03;;;;;;;3.50;1.90;;;13.30;99.90;;;12.54;100.00;96636.88;5051540;28;20463;-72
2023/03/23 06:16:29;;;;;;;2.55;1.80;;;13.30;99.90;;;12.51;100.00;96638.22;5051069;28;20761;-72
2023/03/23 06:18:56;;;;;;;3.40;2.00;;;13.30;99.90;;;12.46;100.00;96643.59;5051327;28;20765;-72
2023/03/23 06:21:22;;;;;;;3.80;2.03;;;13.20;99.90;;;12.46;100.00;96646.25;5051231;28;20413;-72
2023/03/23 06:23:49;;;;;;;3.97;1.92;;;13.20;99.90;;;12.40;100.00;96656.09;5051256;28;20416;-72
2023/03/23 06:26:18;;;;;;;3.77;2.40;;;13.20;99.90;;;12.35;100.00;96647.41;5051278;28;20928;-73
2023/03/23 06:28:44;;;;;;;2.60;2.13;;;13.10;99.90;;;12.34;100.00;96659.88;5050720;28;20875;-73
2023/03/23 06:31:13;;;;;;;3.05;2.00;;;13.10;99.90;;;12.35;100.00;96664.13;5050677;28;20441;-73
2023/03/23 06:33:40;;;;;;;7.47;2.10;;;13.10;99.90;;;12.31;100.00;96659.66;5050704;28;20398;-73
2023/03/23 06:36:08;;;;;;;3.63;2.15;;;13.10;99.90;;;12.30;100.00;96664.19;5050682;28;20393;-73
2023/03/23 06:38:33;;;;;;;5.38;2.28;;;13.10;99.90;;;12.27;100.00;96666.59;5047950;28;20405;-72
2023/03/23 06:40:59;;;;;;;3.05;1.98;;;13.10;99.90;;;12.18;100.00;96658.44;5050946;28;20733;-73
2023/03/23 06:43:25;;;;;;;3.08;2.20;;;13.00;99.90;;;12.18;100.00;96663.75;5050717;28;20401;-72
2023/03/23 06:45:52;;;;;;;5.82;2.10;;;13.00;99.90;;;12.15;100.00;96659.00;5051022;28;20523;-72
2023/03/23 06:48:19;;;;;;;6.47;2.65;;;13.00;99.90;;;12.17;100.00;96659.53;5050839;28;20484;-72
2023/03/23 06:50:46;;;;;;;3.08;2.10;;;12.90;99.90;;;12.24;100.00;96664.50;5050837;28;20393;-72
2023/03/23 06:53:12;;;;;;;6.53;2.67;;;13.00;99.90;;;12.32;100.00;96667.34;5050501;28;20754;-72
2023/03/23 06:55:38;;;;;;;2.25;1.95;;;13.10;99.90;;;12.48;100.00;96670.63;5050194;28;20402;-72
2023/03/23 06:58:05;;;;;;;3.08;1.98;;;13.20;99.90;;;12.59;100.00;96674.00;5050259;28;21001;-73
2023/03/23 07:00:32;;;;;;;2.58;2.25;;;13.30;99.90;;;12.69;100.00;96682.66;5050099;28;21146;-73
2023/03/23 07:02:58;;;;;;;2.75;2.08;;;13.40;99.90;;;12.77;100.00;96687.38;5049860;28;20487;-72
2023/03/23 07:05:26;;;;;;;2.45;2.05;;;13.50;99.90;;;12.85;100.00;96687.81;5050073;28;20416;-72
2023/03/23 07:07:52;;;;;;;3.45;1.70;;;13.60;99.90;;;12.89;100.00;96688.81;5050146;28;20914;-73
2023/03/23 07:10:18;;;;;;;4.23;2.40;;;13.60;99.90;;;12.93;100.00;96684.53;5050174;28;20402;-73
2023/03/23 07:12:44;;;;;;;5.35;2.17;;;13.70;99.90;;;12.96;100.00;96683.97;5049372;28;20429;-73
2023/03/23 07:15:12;;;;;;;3.50;2.20;;;13.70;99.90;;;12.97;100.00;96682.88;5050064;28;20419;-73
2023/03/23 07:17:38;;;;;;;4.80;1.98;;;13.70;99.90;;;13.00;100.00;96688.44;5049331;28;20402;-72
2023/03/23 07:20:06;;;;;;;2.53;2.00;;;13.70;99.90;;;13.00;100.00;96683.13;5049756;28;20405;-72
2023/03/23 07:22:34;;;;;;;6.32;2.40;;;13.70;99.90;;;12.99;100.00;96694.81;5037292;28;20434;-72
2023/03/23 07:25:00;;;;;;;3.60;2.08;;;13.70;99.90;;;13.00;100.00;96706.25;5049803;28;20420;-72
2023/03/23 07:27:26;;;;;;;4.50;2.47;;;13.70;99.90;;;12.97;100.00;96699.63;5049484;28;20484;-72
2023/03/23 07:29:52;;;;;;;3.13;2.50;;;13.70;99.90;;;13.04;100.00;96709.91;5046921;28;20397;-72
2023/03/23 07:32:18;;;;;;;3.10;2.00;;;13.80;99.90;;;13.00;100.00;96714.22;5049393;28;20437;-72
2023/03/23 07:34:44;;;;;;;2.90;2.00;;;13.70;99.90;;;13.02;100.00;96714.69;5031512;28;20803;-72
2023/03/23 07:37:11;;;;;;;4.05;2.10;;;13.80;99.90;;;13.02;100.00;96723.47;5049644;28;20412;-72
2023/03/23 07:39:40;;;;;;;2.60;2.00;;;13.80;99.90;;;13.08;100.00;96724.22;5049496;28;20423;-72
2023/03/23 07:42:07;;;;;;;5.53;2.10;;;13.80;99.90;;;13.20;100.00;96726.50;5049384;28;20401;-72
2023/03/23 07:44:33;;;;;;;3.33;2.10;;;13.90;99.90;;;13.23;100.00;96721.41;5031524;28;20504;-72
2023/03/23 07:46:59;;;;;;;2.50;1.90;;;14.00;99.90;;;13.29;100.00;96722.94;5049572;28;20898;-72
2023/03/23 07:49:26;;;;;;;2.45;1.85;;;14.00;99.90;;;13.43;100.00;96725.69;5049573;28;20493;-72
2023/03/23 07:51:52;;;;;;;5.22;2.78;;;14.10;99.90;;;13.61;100.00;96716.94;5047395;28;20935;-72
2023/03/23 07:54:18;;;;;;;3.63;2.50;;;14.30;99.90;;;13.79;100.00;96721.50;5049651;28;20416;-72
2023/03/23 07:56:46;;;;;;;4.80;2.45;;;14.40;99.90;;;14.05;100.00;96721.13;5051505;28;20492;-72
2023/03/23 07:59:12;;;;;;;2.95;2.25;;;14.60;99.90;;;13.97;100.00;96725.25;5044296;28;20412;-72
2023/03/23 08:01:38;;;;;;;2.85;1.85;;;14.70;99.90;;;14.05;100.00;96718.47;5035647;28;20484;-71
2023/03/23 08:04:05;;;;;;;4.50;2.30;;;14.70;99.90;;;14.00;100.00;96734.50;5049657;28;20511;-73
2023/03/23 08:06:33;;;;;;;4.70;2.30;;;14.70;99.90;;;14.17;100.00;96735.56;5048207;28;21037;-71
2023/03/23 08:08:59;;;;;;;3.03;1.90;;;14.90;99.90;;;14.15;100.00;96734.28;5048102;28;20416;-70
2023/03/23 08:11:25;;;;;;;5.15;2.05;;;14.80;99.90;;;14.05;100.00;96751.19;5048507;28;20437;-71
2023/03/23 08:13:53;;;;;;;4.40;2.30;;;14.70;99.90;;;14.17;100.00;96737.44;5049102;28;20448;-71
2023/03/23 08:16:19;;;;;;;3.50;2.20;;;14.80;99.90;;;14.36;100.00;96751.50;5048927;28;20417;-70
2023/03/23 08:18:46;;;;;;;4.72;1.95;;;14.90;99.90;;;14.13;100.00;96749.75;5051706;28;20442;-73
2023/03/23 08:21:13;;;;;;;4.22;1.92;;;14.90;99.90;;;14.18;100.00;96747.00;5049827;28;20408;-72
2023/03/23 08:23:39;;;;;;;4.82;1.90;;;14.80;99.90;;;14.36;100.00;96748.84;5060715;28;20506;-71
2023/03/23 08:26:07;;;;;;;3.65;2.17;;;15.00;99.90;;;14.30;100.00;96747.34;5054083;28;20926;-73
2023/03/23 08:28:33;;;;;;;4.32;2.10;;;15.00;99.90;;;14.41;100.00;96759.47;5065760;28;20400;-71
2023/03/23 08:31:06;;;;;;;3.03;2.00;;;15.00;99.90;;;14.50;100.00;96759.59;5055548;28;20399;-72
2023/03/23 08:33:33;;;;;;;4.25;2.28;;;15.20;99.90;;;14.44;100.00;96761.53;5046900;28;20409;-71
2023/03/23 08:36:00;;;;;;;5.38;2.10;;;15.20;99.90;;;14.59;100.00;96763.94;5052520;28;20397;-71
2023/03/23 08:38:27;;;;;;;5.00;2.30;;;15.20;99.90;;;14.65;100.00;96762.81;5046816;28;20504;-70
2023/03/23 08:40:58;;;;;;;3.33;2.10;;;15.30;99.90;;;14.37;100.00;96762.94;5050320;28;20409;-71
2023/03/23 08:43:24;;;;;;;2.33;1.88;;;15.10;99.90;;;14.29;100.00;96770.50;5051527;28;20898;-71
2023/03/23 08:45:50;;;;;;;3.90;2.00;;;15.00;99.90;;;14.25;100.00;96766.06;5053659;28;20456;-72
2023/03/23 08:48:17;;;;;;;2.90;2.17;;;15.00;99.90;;;14.27;100.00;96758.59;5050553;28;20471;-72
2023/03/23 08:50:43;;;;;;;3.22;1.90;;;14.90;99.90;;;14.30;100.00;96774.75;5051467;28;20405;-70
2023/03/23 08:53:10;;;;;;;3.75;1.95;;;14.90;99.90;;;14.29;100.00;96772.38;5033649;28;20416;-72
2023/03/23 08:55:36;;;;;;;3.80;2.05;;;14.90;99.90;;;14.37;100.00;96774.41;5052525;28;20405;-70
2023/03/23 08:58:03;;;;;;;2.92;2.00;;;15.00;99.90;;;14.40;100.00;96771.19;5061045;28;20490;-71
2023/03/23 09:00:30;;;;;;;4.28;2.08;;;15.10;99.90;;;14.44;100.00;96776.72;5064486;28;20417;-72
2023/03/23 09:02:56;;;;;;;2.37;1.90;;;15.10;99.90;;;14.32;100.00;96788.59;5052942;28;20404;-72
2023/03/23 09:05:26;;;;;;;3.22;1.98;;;15.00;99.90;;;14.45;100.00;96784.41;5061962;28;20422;-73
2023/03/23 09:07:58;;;;;;;4.13;2.47;;;15.10;99.90;;;14.58;100.00;96781.03;5067191;28;20400;-72
2023/03/23 09:10:24;;;;;;;2.60;1.98;;;15.30;99.90;;;14.65;100.00;96778.78;5055953;28;20434;-74
2023/03/23 09:12:52;;;;;;;3.47;2.08;;;15.30;99.90;;;14.73;100.00;96778.09;5067060;28;20410;-72
2023/03/23 09:15:19;;;;;;;3.15;2.20;;;15.40;99.90;;;14.81;100.00;96786.53;5061294;28;20427;-72
2023/03/23 09:17:48;;;;;;;3.57;2.30;;;15.50;99.90;;;14.70;100.00;96799.22;5041651;28;20856;-72
2023/03/23 09:20:16;;;;;;;3.95;2.30;;;15.40;99.90;;;14.95;100.00;96798.00;5052772;28;20439;-72
2023/03/23 09:22:45;;;;;;;4.88;2.00;;;15.50;99.90;;;14.89;100.00;96801.81;5051845;28;20401;-72
2023/03/23 09:25:14;;;;;;;3.15;2.00;;;15.60;99.90;;;15.05;100.00;96801.28;5052132;28;20421;-72
2023/03/23 09:27:42;;;;;;;2.55;1.88;;;15.70;99.90;;;15.09;100.00;96796.16;5052375;28;20390;-71
2023/03/23 09:30:12;;;;;;;3.87;2.20;;;15.70;99.90;;;15.07;100.00;96816.97;5052219;28;20404;-71
2023/03/23 09:32:39;;;;;;;3.53;2.03;;;15.80;99.90;;;15.19;100.00;96805.81;5050802;28;20480;-72
2023/03/23 09:35:13;;;;;;;4.13;2.03;;;15.70;99.90;;;15.00;100.00;96812.03;5051345;28;20402;-72
2023/03/23 09:37:40;;;;;;;1.98;1.60;;;15.70;99.90;;;14.91;100.00;96805.00;5051886;28;20408;-71
2023/03/23 09:40:14;;;;;;;3.50;2.28;;;15.50;99.90;;;15.06;100.00;96808.19;5052009;28;20930;-72
2023/03/23 09:42:57;;;;;;;2.40;1.70;;;15.70;99.90;;;14.94;100.00;96815.09;5051681;28;20393;-71
2023/03/23 09:45:31;;;;;;;3.40;1.92;;;15.60;99.90;;;14.91;100.00;96813.78;5051435;28;20432;-72
2023/03/23 09:48:20;;;;;;;3.38;1.80;;;15.50;99.90;;;14.95;100.00;96809.47;5051458;28;20405;-71
2023/03/23 09:50:50;;;;;;;3.90;2.22;;;15.60;99.90;;;14.98;100.00;96816.06;5051575;28;20794;-71
2023/03/23 09:53:22;;;;;;;4.07;2.30;;;15.60;99.90;;;15.12;100.00;96816.88;5052502;28;20567;-71
2023/03/23 09:55:50;;;;;;;2.92;1.90;;;15.70;99.90;;;15.19;100.00;96813.81;5051227;28;20818;-72
2023/03/23 09:58:23;;;;;;;4.10;2.00;;;15.80;99.90;;;15.18;100.00;96825.59;5049470;28;20417;-73
2023/03/23 10:00:58;;;;;;;3.45;2.00;;;15.80;98.00;;;15.41;100.00;96825.41;5049485;28;20406;-69
2023/03/23 10:03:33;;;;;;;2.13;1.60;;;16.00;99.90;;;15.55;100.00;96827.34;5049450;28;20429;-70
2023/03/23 10:05:59;;;;;;;3.70;1.88;;;16.10;99.90;;;15.68;100.00;96835.34;5047990;28;20474;-69
2023/03/23 10:08:31;;;;;;;3.28;1.80;;;16.30;99.90;;;15.95;100.00;96831.06;5059773;22;20945;-73
2023/03/23 10:11:04;;;;;;;4.72;1.83;;;16.60;98.50;;;16.11;100.00;96821.66;5024394;28;20427;-73
2023/03/23 10:13:54;;;;;;;3.10;1.70;;;16.70;99.90;;;16.73;100.00;96830.69;5020256;28;20419;-73
2023/03/23 10:16:24;;;;;;;3.40;2.00;;;17.20;99.90;;;16.73;100.00;96828.03;5021483;28;20430;-74
2023/03/23 10:18:58;;;;;;;4.35;2.00;;;17.40;96.40;;;16.82;100.00;96828.88;5021534;28;20624;-72
2023/03/23 10:21:27;;;;;;;4.80;2.05;;;17.50;99.50;;;16.94;100.00;96833.66;5023188;28;20403;-72